createdAt,value
2017-05-29T00:00:25.904Z,0
2017-05-29T00:01:36.164Z,0
2017-05-29T00:02:46.457Z,0
2017-05-29T00:03:56.095Z,0
2017-05-29T00:05:05.739Z,0
2017-05-29T00:06:15.687Z,0
2017-05-29T00:07:25.644Z,0
2017-05-29T00:08:35.907Z,0
2017-05-29T00:09:45.860Z,0
2017-05-29T00:10:55.511Z,0
2017-05-29T00:12:05.461Z,0
2017-05-29T00:13:14.788Z,0
2017-05-29T00:14:25.056Z,0
2017-05-29T00:15:35.004Z,0
2017-05-29T00:16:45.267Z,0
2017-05-29T00:17:55.529Z,0
2017-05-29T00:19:05.480Z,0
2017-05-29T00:20:15.427Z,0
2017-05-29T00:21:25.068Z,0
2017-05-29T00:22:35.335Z,0
2017-05-29T00:23:45.285Z,0
2017-05-29T00:24:55.563Z,0
2017-05-29T00:26:05.516Z,0
2017-05-29T00:27:15.465Z,0
2017-05-29T00:28:25.113Z,0
2017-05-29T00:29:35.272Z,0
2017-05-29T00:30:45.548Z,0
2017-05-29T00:31:55.503Z,0
2017-05-29T00:33:05.772Z,0
2017-05-29T00:34:16.046Z,0
2017-05-29T00:35:25.993Z,0
2017-05-29T00:36:36.263Z,0
2017-05-29T00:37:46.527Z,0
2017-05-29T00:38:56.480Z,0
2017-05-29T00:40:06.755Z,0
2017-05-29T00:41:16.391Z,0
2017-05-29T00:42:26.034Z,0
2017-05-29T00:43:36.300Z,0
2017-05-29T00:44:46.563Z,0
2017-05-29T00:45:56.823Z,4
2017-05-29T00:47:07.088Z,4
2017-05-29T00:48:16.727Z,4
2017-05-29T00:49:26.993Z,4
2017-05-29T00:50:37.264Z,4
2017-05-29T00:51:47.527Z,4
2017-05-29T00:52:57.791Z,0
2017-05-29T00:54:07.743Z,0
2017-05-29T00:55:17.691Z,0
2017-05-29T00:56:27.953Z,4
2017-05-29T00:57:37.900Z,4
2017-05-29T00:58:48.164Z,4
2017-05-29T00:59:58.438Z,4
2017-05-29T01:01:08.705Z,4
2017-05-29T01:02:18.975Z,4
2017-05-29T01:03:29.249Z,4
2017-05-29T01:04:39.520Z,4
2017-05-29T01:05:49.787Z,4
2017-05-29T01:07:00.049Z,8
2017-05-29T01:08:09.684Z,4
2017-05-29T01:09:19.638Z,4
2017-05-29T01:10:29.588Z,8
2017-05-29T01:11:39.854Z,4
2017-05-29T01:12:50.119Z,8
2017-05-29T01:14:00.395Z,8
2017-05-29T01:15:10.344Z,8
2017-05-29T01:16:20.609Z,12
2017-05-29T01:17:30.885Z,8
2017-05-29T01:18:41.143Z,12
2017-05-29T01:19:51.403Z,12
2017-05-29T01:21:01.047Z,16
2017-05-29T01:22:11.005Z,12
2017-05-29T01:23:20.954Z,12
2017-05-29T01:24:31.217Z,16
2017-05-29T01:25:41.488Z,20
2017-05-29T01:26:51.745Z,20
2017-05-29T01:28:02.015Z,20
2017-05-29T01:29:12.277Z,24
2017-05-29T01:30:22.555Z,24
2017-05-29T01:31:32.816Z,28
2017-05-29T01:32:43.083Z,28
2017-05-29T01:33:53.350Z,32
2017-05-29T01:35:03.307Z,32
2017-05-29T01:36:13.264Z,32
2017-05-29T01:37:23.523Z,36
2017-05-29T01:38:33.791Z,40
2017-05-29T01:39:44.069Z,44
2017-05-29T01:40:54.335Z,44
2017-05-29T01:42:04.297Z,48
2017-05-29T01:43:14.254Z,52
2017-05-29T01:44:24.206Z,60
2017-05-29T01:45:34.152Z,60
2017-05-29T01:46:44.417Z,64
2017-05-29T01:47:54.689Z,68
2017-05-29T01:49:04.951Z,76
2017-05-29T01:50:14.902Z,80
2017-05-29T01:51:24.537Z,84
2017-05-29T01:52:34.803Z,92
2017-05-29T01:53:45.073Z,100
2017-05-29T01:54:55.029Z,104
2017-05-29T01:56:05.293Z,116
2017-05-29T01:57:15.559Z,120
2017-05-29T01:58:25.819Z,128
2017-05-29T01:59:35.151Z,136
2017-05-29T02:00:45.415Z,148
2017-05-29T02:01:55.377Z,156
2017-05-29T02:03:05.643Z,168
2017-05-29T02:04:15.600Z,176
2017-05-29T02:05:25.294Z,192
2017-05-29T02:06:35.556Z,204
2017-05-29T02:07:45.506Z,212
2017-05-29T02:08:55.462Z,228
2017-05-29T02:10:05.730Z,240
2017-05-29T02:11:15.054Z,248
2017-05-29T02:12:25.020Z,264
2017-05-29T02:13:35.286Z,272
2017-05-29T02:14:45.234Z,288
2017-05-29T02:15:55.188Z,300
2017-05-29T02:17:05.456Z,316
2017-05-29T02:18:15.724Z,332
2017-05-29T02:19:25.688Z,344
2017-05-29T02:20:35.949Z,356
2017-05-29T02:21:46.268Z,368
2017-05-29T02:22:56.228Z,384
2017-05-29T02:24:06.182Z,400
2017-05-29T02:25:16.452Z,416
2017-05-29T02:26:26.097Z,440
2017-05-29T02:27:35.735Z,452
2017-05-29T02:28:45.692Z,476
2017-05-29T02:29:55.960Z,496
2017-05-29T02:31:06.234Z,520
2017-05-29T02:32:16.180Z,536
2017-05-29T02:33:25.819Z,564
2017-05-29T02:34:35.776Z,588
2017-05-29T02:35:45.725Z,612
2017-05-29T02:36:55.989Z,640
2017-05-29T02:38:05.942Z,668
2017-05-29T02:39:15.893Z,692
2017-05-29T02:40:26.154Z,728
2017-05-29T02:41:36.418Z,760
2017-05-29T02:42:46.686Z,792
2017-05-29T02:43:56.955Z,828
2017-05-29T02:45:07.231Z,872
2017-05-29T02:46:17.496Z,912
2017-05-29T02:47:27.771Z,944
2017-05-29T02:48:37.724Z,976
2017-05-29T02:49:47.992Z,1004
2017-05-29T02:50:57.943Z,1040
2017-05-29T02:52:07.266Z,1072
2017-05-29T02:53:17.535Z,1100
2017-05-29T02:54:27.177Z,1128
2017-05-29T02:55:37.442Z,1156
2017-05-29T02:56:47.706Z,1184
2017-05-29T02:57:57.666Z,1204
2017-05-29T02:59:06.994Z,1220
2017-05-29T03:00:16.936Z,1260
2017-05-29T03:01:26.889Z,1312
2017-05-29T03:02:36.845Z,1360
2017-05-29T03:03:47.110Z,1392
2017-05-29T03:04:57.376Z,1432
2017-05-29T03:06:07.645Z,1468
2017-05-29T03:07:17.275Z,1508
2017-05-29T03:08:27.541Z,1560
2017-05-29T03:09:37.178Z,1624
2017-05-29T03:10:47.448Z,1696
2017-05-29T03:11:57.713Z,1780
2017-05-29T03:13:07.979Z,1840
2017-05-29T03:14:18.011Z,1860
2017-05-29T03:15:27.646Z,1884
2017-05-29T03:16:37.596Z,1908
2017-05-29T03:17:47.926Z,1948
2017-05-29T03:18:58.195Z,1976
2017-05-29T03:20:08.465Z,1976
2017-05-29T03:21:18.423Z,1996
2017-05-29T03:22:28.373Z,2008
2017-05-29T03:23:38.640Z,2040
2017-05-29T03:24:48.594Z,2080
2017-05-29T03:25:58.863Z,2108
2017-05-29T03:27:08.499Z,2136
2017-05-29T03:28:18.762Z,2160
2017-05-29T03:29:29.033Z,2180
2017-05-29T03:30:39.293Z,2204
2017-05-29T03:31:48.929Z,2228
2017-05-29T03:32:59.198Z,2252
2017-05-29T03:34:08.532Z,2272
2017-05-29T03:35:18.481Z,2292
2017-05-29T03:36:28.746Z,2324
2017-05-29T03:37:39.026Z,2364
2017-05-29T03:38:49.299Z,2404
2017-05-29T03:39:59.571Z,2420
2017-05-29T03:41:09.777Z,2408
2017-05-29T03:42:19.731Z,2360
2017-05-29T03:43:29.675Z,2400
2017-05-29T03:44:39.626Z,2480
2017-05-29T03:45:49.889Z,2500
2017-05-29T03:47:00.167Z,2516
2017-05-29T03:48:10.438Z,2540
2017-05-29T03:49:20.402Z,2540
2017-05-29T03:50:30.045Z,2532
2017-05-29T03:51:40.317Z,2532
2017-05-29T03:52:50.584Z,2540
2017-05-29T03:54:00.856Z,2576
2017-05-29T03:55:11.116Z,2624
2017-05-29T03:56:20.749Z,2660
2017-05-29T03:57:30.708Z,2676
2017-05-29T03:58:40.974Z,2644
2017-05-29T03:59:50.930Z,2596
2017-05-29T04:01:01.215Z,2580
2017-05-29T04:02:11.164Z,2604
2017-05-29T04:03:20.798Z,2504
2017-05-29T04:04:30.752Z,2484
2017-05-29T04:05:40.705Z,2520
2017-05-29T04:06:50.981Z,2528
2017-05-29T04:08:01.240Z,2656
2017-05-29T04:09:11.507Z,2508
2017-05-29T04:10:21.459Z,2580
2017-05-29T04:11:31.410Z,2688
2017-05-29T04:12:41.362Z,2756
2017-05-29T04:13:51.648Z,2816
2017-05-29T04:15:01.920Z,2856
2017-05-29T04:16:11.876Z,2936
2017-05-29T04:17:22.157Z,2956
2017-05-29T04:18:31.791Z,3032
2017-05-29T04:19:41.745Z,3168
2017-05-29T04:20:52.008Z,3236
2017-05-29T04:22:02.275Z,3240
2017-05-29T04:23:12.550Z,3148
2017-05-29T04:24:22.813Z,3036
2017-05-29T04:25:32.764Z,3152
2017-05-29T04:26:43.035Z,3192
2017-05-29T04:27:53.309Z,3192
2017-05-29T04:29:02.642Z,3296
2017-05-29T04:30:12.592Z,3356
2017-05-29T04:31:22.556Z,3408
2017-05-29T04:32:32.819Z,3396
2017-05-29T04:33:42.461Z,3312
2017-05-29T04:34:52.723Z,3304
2017-05-29T04:36:02.689Z,3400
2017-05-29T04:37:12.644Z,3536
2017-05-29T04:38:22.911Z,3556
2017-05-29T04:39:32.861Z,3444
2017-05-29T04:40:43.130Z,3500
2017-05-29T04:41:53.087Z,3536
2017-05-29T04:43:02.729Z,3440
2017-05-29T04:44:12.687Z,3372
2017-05-29T04:45:22.957Z,3404
2017-05-29T04:46:33.224Z,3416
2017-05-29T04:47:44.146Z,3448
2017-05-29T04:48:55.193Z,3476
2017-05-29T04:50:04.838Z,3508
2017-05-29T04:51:15.119Z,3696
2017-05-29T04:52:25.076Z,3724
2017-05-29T04:53:35.025Z,3704
2017-05-29T04:54:45.298Z,3572
2017-05-29T04:55:55.260Z,3524
2017-05-29T04:57:05.222Z,3412
2017-05-29T04:58:14.550Z,3352
2017-05-29T04:59:24.816Z,3252
2017-05-29T05:00:34.771Z,3284
2017-05-29T05:01:45.037Z,3284
2017-05-29T05:02:55.314Z,3320
2017-05-29T05:04:05.268Z,3376
2017-05-29T05:05:15.537Z,3436
2017-05-29T05:06:25.490Z,3432
2017-05-29T05:07:35.446Z,3416
2017-05-29T05:08:45.722Z,3408
2017-05-29T05:09:55.985Z,3412
2017-05-29T05:11:06.253Z,3400
2017-05-29T05:12:16.210Z,3436
2017-05-29T05:13:26.479Z,3548
2017-05-29T05:14:35.807Z,3860
2017-05-29T05:15:46.067Z,3952
2017-05-29T05:16:56.391Z,4020
2017-05-29T05:18:06.665Z,4116
2017-05-29T05:19:16.618Z,4204
2017-05-29T05:20:26.577Z,4264
2017-05-29T05:21:36.544Z,4264
2017-05-29T05:22:46.185Z,4244
2017-05-29T05:23:56.460Z,4240
2017-05-29T05:25:06.730Z,4208
2017-05-29T05:26:16.684Z,4180
2017-05-29T05:27:26.956Z,4220
2017-05-29T05:28:36.600Z,4292
2017-05-29T05:29:46.881Z,4368
2017-05-29T05:30:56.840Z,4368
2017-05-29T05:32:07.099Z,4208
2017-05-29T05:33:16.748Z,3980
2017-05-29T05:34:27.014Z,4096
2017-05-29T05:35:36.661Z,4448
2017-05-29T05:36:46.927Z,4952
2017-05-29T05:37:57.196Z,5268
2017-05-29T05:39:07.467Z,5308
2017-05-29T05:40:17.745Z,5164
2017-05-29T05:41:28.009Z,4988
2017-05-29T05:42:38.324Z,5004
2017-05-29T05:43:48.626Z,5212
2017-05-29T05:44:58.263Z,5312
2017-05-29T05:46:08.214Z,5284
2017-05-29T05:47:17.862Z,5268
2017-05-29T05:48:28.138Z,5176
2017-05-29T05:49:38.407Z,5076
2017-05-29T05:50:48.681Z,4896
2017-05-29T05:51:58.645Z,4748
2017-05-29T05:53:08.601Z,4772
2017-05-29T05:54:18.877Z,4444
2017-05-29T05:55:28.830Z,4420
2017-05-29T05:56:38.526Z,4372
2017-05-29T05:57:48.490Z,4576
2017-05-29T05:58:58.451Z,4552
2017-05-29T06:00:08.729Z,4988
2017-05-29T06:01:18.998Z,5224
2017-05-29T06:02:29.285Z,5620
2017-05-29T06:03:39.296Z,5976
2017-05-29T06:04:49.567Z,6356
2017-05-29T06:05:59.840Z,6604
2017-05-29T06:07:10.104Z,6852
2017-05-29T06:08:20.369Z,6996
2017-05-29T06:09:30.007Z,7028
2017-05-29T06:10:39.646Z,7096
2017-05-29T06:11:49.917Z,7192
2017-05-29T06:13:00.199Z,7376
2017-05-29T06:14:09.834Z,7540
2017-05-29T06:15:19.789Z,7672
2017-05-29T06:16:30.059Z,7708
2017-05-29T06:17:40.020Z,7780
2017-05-29T06:18:50.292Z,7656
2017-05-29T06:20:00.567Z,7640
2017-05-29T06:21:10.839Z,7660
2017-05-29T06:22:20.795Z,7904
2017-05-29T06:23:31.069Z,8244
2017-05-29T06:24:41.032Z,8320
2017-05-29T06:25:51.296Z,7984
2017-05-29T06:27:01.573Z,7380
2017-05-29T06:28:11.840Z,7384
2017-05-29T06:29:22.112Z,7544
2017-05-29T06:30:32.385Z,7968
2017-05-29T06:31:42.654Z,8360
2017-05-29T06:32:52.927Z,8580
2017-05-29T06:34:02.575Z,8912
2017-05-29T06:35:12.216Z,9256
2017-05-29T06:36:22.790Z,9600
2017-05-29T06:37:32.828Z,10036
2017-05-29T06:38:43.098Z,10636
2017-05-29T06:39:53.364Z,11096
2017-05-29T06:41:03.015Z,11316
2017-05-29T06:42:12.663Z,11328
2017-05-29T06:43:22.617Z,11536
2017-05-29T06:44:32.894Z,11604
2017-05-29T06:45:43.171Z,11528
2017-05-29T06:46:53.445Z,11524
2017-05-29T06:48:03.715Z,11112
2017-05-29T06:49:13.992Z,10596
2017-05-29T06:50:23.949Z,10204
2017-05-29T06:51:34.225Z,9788
2017-05-29T06:52:44.191Z,9492
2017-05-29T06:53:54.463Z,9408
2017-05-29T06:55:04.740Z,9596
2017-05-29T06:56:15.014Z,9936
2017-05-29T06:57:24.671Z,10096
2017-05-29T06:58:34.945Z,10192
2017-05-29T06:59:44.921Z,10432
2017-05-29T07:00:54.562Z,10768
2017-05-29T07:02:04.836Z,10796
2017-05-29T07:03:14.796Z,10544
2017-05-29T07:04:24.439Z,10196
2017-05-29T07:05:34.397Z,10064
2017-05-29T07:06:44.721Z,10120
2017-05-29T07:07:54.994Z,10144
2017-05-29T07:09:05.265Z,10004
2017-05-29T07:10:14.917Z,9680
2017-05-29T07:11:25.188Z,9524
2017-05-29T07:12:35.462Z,9584
2017-05-29T07:13:45.736Z,9684
2017-05-29T07:14:56.010Z,9636
2017-05-29T07:16:05.982Z,9248
2017-05-29T07:17:15.935Z,8936
2017-05-29T07:18:25.901Z,8812
2017-05-29T07:19:36.178Z,8892
2017-05-29T07:20:46.134Z,9280
2017-05-29T07:21:56.406Z,9692
2017-05-29T07:23:06.675Z,9928
2017-05-29T07:24:16.943Z,9964
2017-05-29T07:25:26.902Z,9876
2017-05-29T07:26:37.177Z,9764
2017-05-29T07:27:47.129Z,9720
2017-05-29T07:28:59.400Z,9820
2017-05-29T07:30:09.675Z,10056
2017-05-29T07:31:19.945Z,10436
2017-05-29T07:32:29.584Z,10676
2017-05-29T07:33:39.856Z,10836
2017-05-29T07:34:49.511Z,10892
2017-05-29T07:35:59.778Z,10740
2017-05-29T07:37:10.055Z,10576
2017-05-29T07:38:19.454Z,10656
2017-05-29T07:39:29.420Z,11032
2017-05-29T07:40:39.728Z,11536
2017-05-29T07:41:49.682Z,12092
2017-05-29T07:42:59.959Z,12324
2017-05-29T07:44:09.911Z,12232
2017-05-29T07:45:19.564Z,11616
2017-05-29T07:46:29.517Z,10928
2017-05-29T07:47:39.786Z,10284
2017-05-29T07:48:49.429Z,9936
2017-05-29T07:49:59.383Z,9788
2017-05-29T07:51:09.658Z,9548
2017-05-29T07:52:19.612Z,9304
2017-05-29T07:53:29.883Z,9140
2017-05-29T07:54:39.852Z,9160
2017-05-29T07:55:49.806Z,9232
2017-05-29T07:57:00.071Z,9260
2017-05-29T07:58:10.026Z,9276
2017-05-29T07:59:20.300Z,9216
2017-05-29T08:00:30.572Z,9068
2017-05-29T08:01:40.528Z,8932
2017-05-29T08:02:50.799Z,8796
2017-05-29T08:04:01.079Z,8668
2017-05-29T08:05:10.409Z,8544
2017-05-29T08:06:20.049Z,8356
2017-05-29T08:07:30.331Z,8164
2017-05-29T08:08:40.292Z,7936
2017-05-29T08:09:50.185Z,7764
2017-05-29T08:11:00.138Z,7720
2017-05-29T08:12:10.103Z,7748
2017-05-29T08:13:20.384Z,7872
2017-05-29T08:14:30.028Z,8048
2017-05-29T08:15:40.300Z,8324
2017-05-29T08:16:49.947Z,8724
2017-05-29T08:17:59.906Z,9072
2017-05-29T08:19:09.863Z,9432
2017-05-29T08:20:19.817Z,9788
2017-05-29T08:21:29.780Z,10120
2017-05-29T08:22:39.739Z,10396
2017-05-29T08:23:49.696Z,10644
2017-05-29T08:24:59.706Z,10924
2017-05-29T08:26:09.973Z,11200
2017-05-29T08:27:19.621Z,11372
2017-05-29T08:28:29.888Z,11468
2017-05-29T08:29:40.163Z,11624
2017-05-29T08:30:49.810Z,11776
2017-05-29T08:31:59.764Z,11876
2017-05-29T08:33:10.028Z,11908
2017-05-29T08:34:20.298Z,11952
2017-05-29T08:35:29.946Z,12184
2017-05-29T08:36:39.947Z,12364
2017-05-29T08:37:50.233Z,12588
2017-05-29T08:39:02.512Z,12904
2017-05-29T08:40:12.468Z,13120
2017-05-29T08:41:22.108Z,13516
2017-05-29T08:42:32.382Z,13680
2017-05-29T08:43:42.672Z,13844
2017-05-29T08:44:52.631Z,14012
2017-05-29T08:46:02.586Z,14196
2017-05-29T08:47:12.236Z,13864
2017-05-29T08:48:22.508Z,13928
2017-05-29T08:49:32.789Z,14148
2017-05-29T08:50:42.743Z,14072
2017-05-29T08:51:53.016Z,14076
2017-05-29T08:53:02.970Z,14220
2017-05-29T08:54:12.928Z,14336
2017-05-29T08:55:22.892Z,14424
2017-05-29T08:56:32.862Z,14708
2017-05-29T08:57:43.160Z,15184
2017-05-29T08:58:53.428Z,15748
2017-05-29T09:00:03.709Z,16576
2017-05-29T09:01:14.020Z,16864
2017-05-29T09:02:23.976Z,17056
2017-05-29T09:03:33.823Z,17504
2017-05-29T09:04:44.100Z,17760
2017-05-29T09:05:54.366Z,17984
2017-05-29T09:07:04.642Z,18080
2017-05-29T09:08:14.289Z,17952
2017-05-29T09:09:23.940Z,17888
2017-05-29T09:10:33.909Z,17440
2017-05-29T09:11:43.917Z,17440
2017-05-29T09:12:54.192Z,17504
2017-05-29T09:14:04.151Z,17184
2017-05-29T09:15:14.107Z,16992
2017-05-29T09:16:24.071Z,16864
2017-05-29T09:17:34.336Z,16960
2017-05-29T09:18:44.299Z,17056
2017-05-29T09:19:54.566Z,17056
2017-05-29T09:21:04.830Z,16736
2017-05-29T09:22:14.786Z,16768
2017-05-29T09:23:25.061Z,16352
2017-05-29T09:24:35.342Z,15260
2017-05-29T09:25:45.623Z,14204
2017-05-29T09:26:55.893Z,14016
2017-05-29T09:28:05.547Z,13112
2017-05-29T09:29:15.822Z,12540
2017-05-29T09:30:25.473Z,12284
2017-05-29T09:31:35.751Z,11904
2017-05-29T09:32:46.023Z,11848
2017-05-29T09:33:55.670Z,11612
2017-05-29T09:35:05.632Z,11548
2017-05-29T09:36:15.277Z,11600
2017-05-29T09:37:25.236Z,11640
2017-05-29T09:38:35.196Z,11396
2017-05-29T09:39:44.529Z,10640
2017-05-29T09:40:54.487Z,10364
2017-05-29T09:42:04.753Z,9996
2017-05-29T09:43:15.030Z,9720
2017-05-29T09:44:24.992Z,9964
2017-05-29T09:45:34.960Z,9832
2017-05-29T09:46:45.238Z,9960
2017-05-29T09:47:54.881Z,10212
2017-05-29T09:49:04.842Z,10376
2017-05-29T09:50:15.115Z,10496
2017-05-29T09:51:25.387Z,10684
2017-05-29T09:52:35.658Z,10868
2017-05-29T09:53:46.159Z,11160
2017-05-29T09:54:56.431Z,11604
2017-05-29T09:56:06.697Z,12100
2017-05-29T09:57:16.663Z,12448
2017-05-29T09:58:26.627Z,12780
2017-05-29T09:59:36.588Z,13096
2017-05-29T10:00:46.236Z,13384
2017-05-29T10:01:55.879Z,13604
2017-05-29T10:03:05.836Z,13872
2017-05-29T10:04:15.478Z,14152
2017-05-29T10:05:25.120Z,14356
2017-05-29T10:06:35.082Z,14444
2017-05-29T10:07:44.727Z,14504
2017-05-29T10:08:55.010Z,14652
2017-05-29T10:10:05.282Z,14952
2017-05-29T10:11:14.927Z,15292
2017-05-29T10:12:26.885Z,14956
2017-05-29T10:13:37.154Z,14868
2017-05-29T10:14:47.127Z,15208
2017-05-29T10:15:57.401Z,15120
2017-05-29T10:17:07.900Z,15432
2017-05-29T10:18:18.176Z,15924
2017-05-29T10:19:27.504Z,16608
2017-05-29T10:20:37.773Z,16928
2017-05-29T10:21:48.045Z,16244
2017-05-29T10:22:58.004Z,15244
2017-05-29T10:24:08.282Z,14096
2017-05-29T10:25:18.245Z,13212
2017-05-29T10:26:27.890Z,12692
2017-05-29T10:27:37.220Z,12844
2017-05-29T10:28:47.487Z,13592
2017-05-29T10:29:57.759Z,14556
2017-05-29T10:31:07.718Z,14236
2017-05-29T10:32:17.681Z,15540
2017-05-29T10:33:27.641Z,16332
2017-05-29T10:34:37.909Z,17760
2017-05-29T10:35:48.178Z,19712
2017-05-29T10:36:58.155Z,21088
2017-05-29T10:38:08.430Z,20640
2017-05-29T10:39:18.693Z,18944
2017-05-29T10:40:28.338Z,18848
2017-05-29T10:41:38.299Z,19040
2017-05-29T10:42:48.579Z,18336
2017-05-29T10:43:58.849Z,17728
2017-05-29T10:45:08.803Z,17920
2017-05-29T10:46:18.755Z,18336
2017-05-29T10:47:29.027Z,18944
2017-05-29T10:48:38.986Z,19360
2017-05-29T10:49:49.258Z,19264
2017-05-29T10:50:59.526Z,18816
2017-05-29T10:52:09.494Z,18656
2017-05-29T10:53:19.447Z,17984
2017-05-29T10:54:29.722Z,18272
2017-05-29T10:55:39.687Z,18752
2017-05-29T10:56:49.961Z,18656
2017-05-29T10:57:59.915Z,19488
2017-05-29T10:59:09.927Z,22080
2017-05-29T11:00:20.199Z,22432
2017-05-29T11:01:30.159Z,21312
2017-05-29T11:02:40.127Z,20096
2017-05-29T11:03:50.095Z,20640
2017-05-29T11:05:00.372Z,20576
2017-05-29T11:06:10.017Z,19744
2017-05-29T11:07:19.894Z,19200
2017-05-29T11:08:29.855Z,19456
2017-05-29T11:09:39.814Z,19424
2017-05-29T11:10:49.777Z,18400
2017-05-29T11:11:59.731Z,17920
2017-05-29T11:13:10.010Z,16288
2017-05-29T11:14:19.968Z,14276
2017-05-29T11:15:29.930Z,13532
2017-05-29T11:16:40.198Z,13388
2017-05-29T11:17:50.492Z,13248
2017-05-29T11:19:00.450Z,12744
2017-05-29T11:20:10.409Z,12384
2017-05-29T11:21:19.745Z,12672
2017-05-29T11:22:29.701Z,12588
2017-05-29T11:23:39.970Z,13484
2017-05-29T11:24:50.247Z,13736
2017-05-29T11:25:59.892Z,14976
2017-05-29T11:27:09.928Z,17120
2017-05-29T11:28:19.884Z,19552
2017-05-29T11:29:29.838Z,22080
2017-05-29T11:30:40.110Z,24416
2017-05-29T11:31:50.384Z,24640
2017-05-29T11:33:00.660Z,30560
2017-05-29T11:34:10.305Z,32192
2017-05-29T11:35:19.951Z,46656
2017-05-29T11:36:30.221Z,24288
2017-05-29T11:37:40.499Z,19712
2017-05-29T11:38:50.779Z,18912
2017-05-29T11:40:01.053Z,17120
2017-05-29T11:41:11.325Z,15672
2017-05-29T11:42:20.968Z,14948
2017-05-29T11:43:31.240Z,13900
2017-05-29T11:44:41.213Z,13420
2017-05-29T11:45:51.174Z,13120
2017-05-29T11:47:01.506Z,13576
2017-05-29T11:48:11.789Z,14224
2017-05-29T11:49:21.435Z,14164
2017-05-29T11:50:30.771Z,13276
2017-05-29T11:51:41.044Z,12856
2017-05-29T11:52:51.319Z,12064
2017-05-29T11:54:01.274Z,11364
2017-05-29T11:55:11.235Z,10356
2017-05-29T11:56:20.881Z,10112
2017-05-29T11:57:30.840Z,9288
2017-05-29T11:58:40.800Z,9068
2017-05-29T11:59:50.756Z,9196
2017-05-29T12:01:01.038Z,9212
2017-05-29T12:02:10.681Z,9272
2017-05-29T12:03:19.694Z,9292
2017-05-29T12:04:29.968Z,9220
2017-05-29T12:05:39.929Z,9032
2017-05-29T12:06:50.199Z,8888
2017-05-29T12:07:59.523Z,8908
2017-05-29T12:09:09.482Z,8668
2017-05-29T12:10:19.126Z,8368
2017-05-29T12:11:29.081Z,8948
2017-05-29T12:12:38.722Z,9384
2017-05-29T12:13:48.679Z,8380
2017-05-29T12:14:58.640Z,8548
2017-05-29T12:16:08.591Z,9212
2017-05-29T12:17:18.866Z,9800
2017-05-29T12:18:29.139Z,9828
2017-05-29T12:19:38.785Z,9380
2017-05-29T12:20:49.059Z,9556
2017-05-29T12:21:59.333Z,9728
2017-05-29T12:23:09.611Z,9584
2017-05-29T12:24:19.569Z,9316
2017-05-29T12:25:29.839Z,8868
2017-05-29T12:26:40.122Z,8808
2017-05-29T12:27:50.405Z,9792
2017-05-29T12:29:00.364Z,10680
2017-05-29T12:30:10.640Z,11548
2017-05-29T12:31:20.596Z,12108
2017-05-29T12:32:30.561Z,11980
2017-05-29T12:33:40.840Z,12320
2017-05-29T12:34:51.112Z,12400
2017-05-29T12:36:01.384Z,12352
2017-05-29T12:37:11.029Z,17056
2017-05-29T12:38:21.303Z,11752
2017-05-29T12:39:31.262Z,11892
2017-05-29T12:40:41.537Z,10464
2017-05-29T12:41:51.808Z,9528
2017-05-29T12:43:02.085Z,9208
2017-05-29T12:44:12.046Z,9444
2017-05-29T12:45:21.699Z,9472
2017-05-29T12:46:31.991Z,9900
2017-05-29T12:47:41.636Z,10168
2017-05-29T12:48:51.906Z,10400
2017-05-29T12:50:01.905Z,11032
2017-05-29T12:51:12.187Z,11152
2017-05-29T12:52:22.145Z,11324
2017-05-29T12:53:32.104Z,11652
2017-05-29T12:54:42.065Z,12260
2017-05-29T12:55:52.596Z,13524
2017-05-29T12:57:02.580Z,14968
2017-05-29T12:58:12.853Z,17280
2017-05-29T12:59:23.125Z,18272
2017-05-29T13:00:33.084Z,17472
2017-05-29T13:01:43.354Z,16576
2017-05-29T13:02:53.638Z,15440
2017-05-29T13:04:03.593Z,13812
2017-05-29T13:05:13.558Z,12716
2017-05-29T13:06:42.737Z,11792
2017-05-29T13:07:53.008Z,11588
2017-05-29T13:09:02.966Z,11484
2017-05-29T13:10:12.931Z,11028
2017-05-29T13:11:22.269Z,12068
2017-05-29T13:12:32.540Z,14580
2017-05-29T13:13:42.496Z,17088
2017-05-29T13:14:52.795Z,20192
2017-05-29T13:16:02.755Z,24992
2017-05-29T13:17:12.715Z,51200
2017-05-29T13:18:22.988Z,39296
2017-05-29T13:19:33.281Z,35584
2017-05-29T13:20:43.235Z,53344
2017-05-29T13:21:53.198Z,47904
2017-05-29T13:23:03.153Z,35680
2017-05-29T13:24:13.428Z,31968
2017-05-29T13:25:23.074Z,24416
2017-05-29T13:26:33.033Z,22080
2017-05-29T13:27:42.999Z,20448
2017-05-29T13:28:52.956Z,19584
2017-05-29T13:30:03.237Z,19904
2017-05-29T13:31:12.882Z,21344
2017-05-29T13:32:22.848Z,23616
2017-05-29T13:33:32.812Z,23456
2017-05-29T13:34:42.457Z,26080
2017-05-29T13:35:52.732Z,44576
2017-05-29T13:37:02.695Z,44096
2017-05-29T13:38:13.238Z,37056
2017-05-29T13:39:24.080Z,35552
2017-05-29T13:40:34.094Z,29536
2017-05-29T13:41:44.375Z,28352
2017-05-29T13:42:54.656Z,28992
2017-05-29T13:44:04.933Z,31488
2017-05-29T13:45:15.220Z,52320
2017-05-29T13:46:25.178Z,32224
2017-05-29T13:47:35.455Z,24320
2017-05-29T13:48:45.734Z,19712
2017-05-29T13:49:56.009Z,18336
2017-05-29T13:51:06.292Z,18944
2017-05-29T13:52:16.565Z,21184
2017-05-29T13:53:26.212Z,22560
2017-05-29T13:54:36.170Z,22688
2017-05-29T13:55:46.137Z,21888
2017-05-29T13:56:56.097Z,20032
2017-05-29T13:58:06.379Z,17344
2017-05-29T13:59:16.654Z,15288
2017-05-29T14:00:26.616Z,14176
2017-05-29T14:01:36.890Z,14020
2017-05-29T14:02:47.061Z,14300
2017-05-29T14:03:57.358Z,14188
2017-05-29T14:05:07.322Z,14308
2017-05-29T14:06:17.286Z,14936
2017-05-29T14:07:27.256Z,15112
2017-05-29T14:08:36.908Z,15072
2017-05-29T14:09:46.866Z,15696
2017-05-29T14:10:57.138Z,16800
2017-05-29T14:12:07.097Z,18752
2017-05-29T14:13:17.063Z,20512
2017-05-29T14:14:26.705Z,23168
2017-05-29T14:15:36.667Z,28512
2017-05-29T14:16:46.627Z,32512
2017-05-29T14:17:56.901Z,32704
2017-05-29T14:19:07.176Z,36384
2017-05-29T14:20:17.451Z,32000
2017-05-29T14:21:27.409Z,30624
2017-05-29T14:22:37.062Z,26752
2017-05-29T14:23:47.332Z,29376
2017-05-29T14:24:57.288Z,40544
2017-05-29T14:26:07.253Z,47232
2017-05-29T14:27:17.221Z,44384
2017-05-29T14:28:26.870Z,51040
2017-05-29T14:29:37.154Z,40000
2017-05-29T14:30:47.428Z,49536
2017-05-29T14:31:57.089Z,64448
2017-05-29T14:33:07.366Z,59296
2017-05-29T14:34:17.332Z,53056
2017-05-29T14:35:27.291Z,60896
2017-05-29T14:36:36.943Z,33824
2017-05-29T14:37:47.220Z,25280
2017-05-29T14:38:57.506Z,30176
2017-05-29T14:40:07.468Z,30624
2017-05-29T14:41:17.432Z,34272
2017-05-29T14:42:27.396Z,27072
2017-05-29T14:43:37.673Z,30784
2017-05-29T14:44:47.317Z,24032
2017-05-29T14:45:57.615Z,24352
2017-05-29T14:47:07.888Z,25216
2017-05-29T14:48:17.537Z,24384
2017-05-29T14:49:27.818Z,31040
2017-05-29T14:50:38.098Z,24896
2017-05-29T14:51:48.379Z,24832
2017-05-29T14:52:58.660Z,25952
2017-05-29T14:54:08.934Z,28480
2017-05-29T14:55:18.903Z,31328
2017-05-29T14:56:28.869Z,33088
2017-05-29T14:57:39.153Z,22560
2017-05-29T14:58:49.434Z,19776
2017-05-29T14:59:59.394Z,19328
2017-05-29T15:01:09.360Z,20288
2017-05-29T15:02:19.364Z,22048
2017-05-29T15:03:29.324Z,26944
2017-05-29T15:04:39.609Z,31264
2017-05-29T15:05:49.888Z,57024
2017-05-29T15:07:00.167Z,56256
2017-05-29T15:08:09.840Z,32000
2017-05-29T15:09:19.811Z,29440
2017-05-29T15:10:29.461Z,29184
2017-05-29T15:11:39.424Z,26944
2017-05-29T15:12:49.714Z,29056
2017-05-29T15:13:59.684Z,82656
2017-05-29T15:15:09.959Z,29312
2017-05-29T15:16:19.920Z,27008
2017-05-29T15:17:29.891Z,30912
2017-05-29T15:18:40.166Z,30720
2017-05-29T15:19:50.124Z,21952
2017-05-29T15:21:00.399Z,20032
2017-05-29T15:22:10.678Z,18176
2017-05-29T15:23:20.331Z,16480
2017-05-29T15:24:30.299Z,15524
2017-05-29T15:25:40.571Z,15132
2017-05-29T15:26:50.221Z,15204
2017-05-29T15:28:00.497Z,15744
2017-05-29T15:29:10.768Z,15904
2017-05-29T15:30:20.740Z,15372